Time;durP1;ratioP1;P1;durP2;ratioP2;P2;SDS_P1;SDS_P2;PMS_P1;PMS_P2;Temp;Humidity;BMP_temperature;BMP_pressure;BME280_temperature;BME280_humidity;BME280_pressure;Samples;Min_cycle;Max_cycle;Signal;HPM_P1;HPM_P2
2021/05/14 00:01:09;;;;;;;53.00;23.93;;;;;;;8.20;94.99;100176.53;5093497;28;20032;-65
2021/05/14 00:03:34;;;;;;;45.38;21.25;;;;;;;8.19;94.89;100180.16;5111257;28;20479;-65
2021/05/14 00:06:00;;;;;;;39.30;21.47;;;;;;;8.20;94.96;100182.69;5093502;28;20035;-65
2021/05/14 00:08:26;;;;;;;41.33;20.30;;;;;;;8.28;94.69;100183.69;5110948;28;20036;-65
2021/05/14 00:10:51;;;;;;;38.83;19.83;;;;;;;8.23;94.69;100184.19;5111154;28;20447;-65
2021/05/14 00:13:18;;;;;;;42.23;22.40;;;;;;;8.15;95.10;100181.50;5093484;28;20035;-65
2021/05/14 00:15:43;;;;;;;40.63;21.90;;;;;;;8.14;95.48;100183.31;5111223;28;20067;-65
2021/05/14 00:18:08;;;;;;;55.97;25.27;;;;;;;8.30;95.59;100187.03;5110971;28;20071;-65
2021/05/14 00:20:33;;;;;;;50.63;24.33;;;;;;;8.32;95.49;100190.38;5076548;28;20042;-65
2021/05/14 00:22:59;;;;;;;48.40;23.47;;;;;;;8.33;95.50;100184.03;5093068;28;20040;-65
2021/05/14 00:25:24;;;;;;;55.93;25.03;;;;;;;8.26;95.30;100186.50;5096770;28;20058;-65
2021/05/14 00:27:49;;;;;;;42.17;22.53;;;;;;;8.17;95.70;100184.81;5096711;28;20061;-65
2021/05/14 00:30:16;;;;;;;44.40;24.80;;;;;;;8.30;95.58;100185.19;5114893;28;20035;-66
2021/05/14 00:32:41;;;;;;;47.75;24.20;;;;;;;8.28;95.47;100184.53;5114934;28;20034;-65
2021/05/14 00:35:07;;;;;;;51.40;25.00;;;;;;;8.28;95.40;100179.22;5097052;28;20043;-65
2021/05/14 00:37:34;;;;;;;47.17;23.77;;;;;;;8.33;95.54;100182.22;5114382;28;20042;-65
2021/05/14 00:39:59;;;;;;;51.50;24.73;;;;;;;8.24;95.38;100176.06;5114695;28;20035;-65
2021/05/14 00:42:24;;;;;;;47.70;22.30;;;;;;;8.28;95.39;100175.72;5114774;28;20043;-65
2021/05/14 00:44:50;;;;;;;41.57;22.00;;;;;;;8.24;95.53;100177.84;5114650;28;20448;-65
2021/05/14 00:47:17;;;;;;;45.93;22.60;;;;;;;8.35;95.31;100182.06;5114641;28;20080;-65
2021/05/14 00:49:44;;;;;;;39.00;22.00;;;;;;;8.23;95.07;100174.38;5114328;28;20045;-65
2021/05/14 00:52:12;;;;;;;42.55;22.23;;;;;;;8.25;95.11;100175.03;5096572;28;20464;-65
2021/05/14 00:54:38;;;;;;;49.47;23.80;;;;;;;8.33;95.19;100174.22;5088466;28;20046;-65
2021/05/14 00:57:05;;;;;;;47.35;24.50;;;;;;;8.30;94.78;100174.56;5096654;28;20065;-65
2021/05/14 00:59:31;;;;;;;43.70;21.40;;;;;;;8.28;94.83;100170.41;5114118;28;20050;-65
2021/05/14 01:01:56;;;;;;;49.20;22.73;;;;;;;8.27;94.83;100172.22;5079363;28;20040;-65
2021/05/14 01:04:23;;;;;;;37.13;20.63;;;;;;;8.27;94.86;100171.41;5096433;28;20401;-65
2021/05/14 01:06:48;;;;;;;46.72;22.23;;;;;;;8.24;94.97;100172.53;5096079;28;20471;-65
2021/05/14 01:09:14;;;;;;;43.10;22.07;;;;;;;8.16;94.81;100168.03;5113901;28;20063;-65
2021/05/14 01:11:40;;;;;;;43.55;22.25;;;;;;;8.19;95.03;100162.41;5114079;28;20032;-65
2021/05/14 01:14:05;;;;;;;49.00;23.55;;;;;;;8.17;94.80;100160.88;5114085;28;20330;-65
2021/05/14 01:16:30;;;;;;;45.50;21.93;;;;;;;8.16;95.01;100168.03;5079356;28;20834;-65
2021/05/14 01:18:56;;;;;;;43.30;22.00;;;;;;;8.20;94.81;100161.41;5113768;28;20052;-65
2021/05/14 01:21:21;;;;;;;48.50;22.27;;;;;;;8.13;94.92;100154.25;5096103;28;20054;-65
2021/05/14 01:23:47;;;;;;;52.37;22.17;;;;;;;8.10;95.15;100143.91;5095812;28;20032;-65
2021/05/14 01:26:15;;;;;;;46.85;22.40;;;;;;;8.11;95.09;100150.91;5113944;28;20607;-65
2021/05/14 01:28:41;;;;;;;47.13;22.90;;;;;;;8.11;95.00;100150.91;5095481;28;20049;-65
2021/05/14 01:31:07;;;;;;;41.85;22.55;;;;;;;8.12;95.08;100157.88;5113832;28;20035;-65
2021/05/14 01:33:32;;;;;;;51.75;23.58;;;;;;;7.99;94.86;100153.84;5095876;28;20093;-65
2021/05/14 01:35:58;;;;;;;43.57;21.10;;;;;;;8.02;95.31;100150.88;5112940;28;20059;-65
2021/05/14 01:38:24;;;;;;;47.47;22.60;;;;;;;8.06;95.11;100153.22;5095366;28;20926;-65
2021/05/14 01:40:49;;;;;;;45.27;22.07;;;;;;;8.06;95.08;100159.38;5078778;28;20110;-65
2021/05/14 01:43:14;;;;;;;48.20;22.77;;;;;;;8.06;94.91;100146.06;5113465;28;20122;-65
2021/05/14 01:45:40;;;;;;;48.80;23.70;;;;;;;7.96;95.03;100145.34;5095564;28;20043;-65
2021/05/14 01:48:05;;;;;;;48.90;22.60;;;;;;;7.97;95.11;100144.38;5078352;28;20023;-71
2021/05/14 01:50:31;;;;;;;49.00;23.23;;;;;;;7.93;95.05;100137.72;5113828;28;20075;-70
2021/05/14 01:52:56;;;;;;;41.30;21.33;;;;;;;8.02;95.33;100136.75;5095427;28;20276;-71
2021/05/14 01:55:21;;;;;;;42.07;21.50;;;;;;;7.95;95.09;100128.56;5113333;28;20114;-71
2021/05/14 01:57:47;;;;;;;40.60;20.17;;;;;;;7.97;94.98;100125.78;5078309;28;20080;-71
2021/05/14 02:00:13;;;;;;;41.97;20.20;;;;;;;7.96;94.70;100127.59;5113171;28;20063;-71
2021/05/14 02:02:38;;;;;;;45.53;20.17;;;;;;;7.93;95.42;100135.03;5113148;28;20039;-71
2021/05/14 02:05:04;;;;;;;41.37;18.93;;;;;;;7.92;94.78;100141.38;5113144;28;20046;-71
2021/05/14 02:07:30;;;;;;;39.33;17.30;;;;;;;7.95;94.90;100143.69;5112659;28;20753;-71
2021/05/14 02:09:55;;;;;;;36.70;16.57;;;;;;;7.98;94.60;100141.56;5078233;28;20126;-71
2021/05/14 02:12:21;;;;;;;44.63;18.77;;;;;;;7.96;94.32;100143.53;5095046;28;20073;-71
2021/05/14 02:14:47;;;;;;;37.97;17.13;;;;;;;7.96;94.19;100146.22;5112961;28;20376;-71
2021/05/14 02:17:12;;;;;;;35.58;18.25;;;;;;;7.95;94.78;100144.53;5112858;28;20120;-71
2021/05/14 02:19:37;;;;;;;68.67;20.67;;;;;;;7.94;94.56;100139.38;5112538;28;20069;-71
2021/05/14 02:22:04;;;;;;;44.30;18.67;;;;;;;7.93;94.81;100141.19;5112550;28;20032;-71
2021/05/14 02:24:29;;;;;;;35.20;18.83;;;;;;;8.00;94.80;100144.88;5112673;28;20035;-71
2021/05/14 02:26:55;;;;;;;51.93;22.77;;;;;;;7.97;94.65;100134.56;5094755;28;20047;-71
2021/05/14 02:29:20;;;;;;;47.07;19.33;;;;;;;8.01;94.78;100135.91;5094423;28;20031;-71
2021/05/14 02:31:45;;;;;;;48.60;20.30;;;;;;;7.98;94.52;100130.94;5077838;28;20036;-71
2021/05/14 02:34:11;;;;;;;38.50;19.03;;;;;;;8.00;94.74;100134.22;5094575;28;20063;-71
2021/05/14 02:36:36;;;;;;;42.33;20.77;;;;;;;8.04;94.79;100124.13;5112367;28;20115;-71
2021/05/14 02:39:03;;;;;;;45.33;19.27;;;;;;;7.99;94.54;100121.94;5112209;28;20731;-71
2021/05/14 02:41:28;;;;;;;41.50;19.83;;;;;;;8.07;94.42;100129.13;5112453;28;20410;-70
2021/05/14 02:43:53;;;;;;;49.50;21.90;;;;;;;8.00;94.33;100128.09;5094512;28;20043;-71
2021/05/14 02:46:19;;;;;;;49.97;19.87;;;;;;;8.04;93.89;100129.44;5112364;28;20031;-71
2021/05/14 02:48:44;;;;;;;43.03;19.77;;;;;;;8.00;93.83;100128.91;5111253;28;20456;-71
2021/05/14 02:51:09;;;;;;;41.47;18.93;;;;;;;8.01;93.67;100125.28;5112151;28;20031;-71
2021/05/14 02:53:35;;;;;;;49.70;21.70;;;;;;;7.99;93.77;100121.94;5112192;28;20098;-71
2021/05/14 02:56:00;;;;;;;53.37;21.57;;;;;;;8.01;93.89;100122.63;5077407;28;20031;-71
2021/05/14 02:58:25;;;;;;;40.40;19.10;;;;;;;8.06;93.78;100123.97;5077308;28;20024;-71
2021/05/14 03:00:51;;;;;;;41.97;20.57;;;;;;;8.07;93.71;100115.81;5094130;28;20038;-71
2021/05/14 03:03:16;;;;;;;42.33;20.73;;;;;;;8.10;93.76;100122.63;5112021;28;20097;-71
2021/05/14 03:05:41;;;;;;;45.37;21.70;;;;;;;8.11;93.88;100125.16;5111799;28;20055;-71
2021/05/14 03:08:07;;;;;;;49.17;21.53;;;;;;;8.08;93.75;100117.50;5093879;28;20035;-71
2021/05/14 03:10:32;;;;;;;42.50;19.13;;;;;;;8.11;93.82;100113.69;5112007;28;20043;-71
2021/05/14 03:12:57;;;;;;;53.77;21.43;;;;;;;8.09;93.74;100108.50;5093910;28;20863;-71
2021/05/14 03:15:23;;;;;;;47.00;20.77;;;;;;;8.12;93.93;100107.34;5111865;28;20046;-71
2021/05/14 03:17:48;;;;;;;44.33;17.93;;;;;;;8.12;93.51;100107.34;5111671;28;20165;-71
2021/05/14 03:20:14;;;;;;;49.33;19.03;;;;;;;8.13;93.24;100111.69;5111672;28;20126;-71
2021/05/14 03:22:39;;;;;;;41.23;19.17;;;;;;;8.08;93.13;100112.19;5077042;28;20116;-71
2021/05/14 03:25:08;;;;;;;52.97;21.50;;;;;;;8.05;93.09;100123.13;5111726;28;20603;-71
2021/05/14 03:27:33;;;;;;;44.72;21.25;;;;;;;8.10;93.23;100122.63;5111470;28;20065;-71
2021/05/14 03:29:59;;;;;;;45.17;20.30;;;;;;;8.11;93.29;100124.31;5093709;28;20035;-71
2021/05/14 03:32:25;;;;;;;46.42;20.10;;;;;;;8.17;93.41;100118.34;5111743;28;20111;-71
2021/05/14 03:34:50;;;;;;;39.20;18.10;;;;;;;8.21;93.33;100106.38;5111475;28;20111;-71
2021/05/14 03:37:16;;;;;;;39.27;18.27;;;;;;;8.19;93.27;100113.69;5111568;28;20465;-71
2021/05/14 03:39:47;;;;;;;50.87;18.70;;;;;;;8.18;93.04;100120.03;5093501;28;20424;-71
2021/05/14 03:42:14;;;;;;;45.25;20.45;;;;;;;8.22;93.22;100121.38;5093647;28;20070;-71
2021/05/14 03:44:41;;;;;;;48.35;22.67;;;;;;;8.23;92.94;100120.34;5093630;28;20050;-71
2021/05/14 03:47:06;;;;;;;54.22;20.33;;;;;;;8.30;93.15;100128.53;5111491;28;20028;-71
2021/05/14 03:49:38;;;;;;;42.75;19.10;;;;;;;8.31;93.10;100125.72;5111117;28;20457;-70
2021/05/14 03:52:06;;;;;;;45.63;18.92;;;;;;;8.28;93.16;100130.50;5111490;28;20032;-71
2021/05/14 03:54:32;;;;;;;51.85;21.10;;;;;;;8.23;92.93;100129.16;5093663;28;20031;-71
2021/05/14 03:56:57;;;;;;;48.22;22.85;;;;;;;8.21;93.26;100133.81;5111449;28;20028;-71
2021/05/14 03:59:22;;;;;;;43.27;21.23;;;;;;;8.16;93.47;100136.13;5113173;28;20513;-71
2021/05/14 04:01:48;;;;;;;51.87;20.00;;;;;;;8.21;93.43;100133.81;5115407;28;20057;-71
2021/05/14 04:04:13;;;;;;;43.03;19.30;;;;;;;8.02;92.93;100132.25;5115454;28;20114;-71
2021/05/14 04:06:39;;;;;;;50.00;19.75;;;;;;;8.02;93.32;100124.28;5115496;28;20049;-71
2021/05/14 04:09:05;;;;;;;43.07;21.03;;;;;;;8.03;93.40;100125.13;5114854;28;20038;-71
2021/05/14 04:11:54;;;;;;;54.53;20.42;;;;;;;7.96;93.26;100118.78;5115187;28;20487;-71
2021/05/14 04:14:30;;;;;;;39.33;18.83;;;;;;;8.09;93.09;100115.66;5114945;28;20471;-71
2021/05/14 04:17:04;;;;;;;38.67;18.60;;;;;;;8.07;92.39;100112.34;5115421;28;20380;-71
2021/05/14 04:19:29;;;;;;;40.55;17.63;;;;;;;8.11;92.49;100117.16;5097132;28;20067;-71
2021/05/14 04:21:57;;;;;;;45.10;17.70;;;;;;;8.13;92.28;100107.22;5115049;28;20129;-71
2021/05/14 04:24:23;;;;;;;40.28;18.13;;;;;;;8.11;92.21;100100.38;5097160;28;20464;-71
2021/05/14 04:26:50;;;;;;;42.83;20.05;;;;;;;8.11;92.32;100103.88;5097093;28;20046;-71
2021/05/14 04:29:17;;;;;;;46.60;17.95;;;;;;;8.16;92.67;100111.38;5114687;28;20027;-71
2021/05/14 04:31:43;;;;;;;;;;;;;;;8.13;92.41;100109.88;5097441;28;20062;-71
2021/05/14 04:34:10;;;;;;;34.17;16.27;;;;;;;8.21;92.07;100106.38;5114697;28;20015;-71
2021/05/14 04:36:35;;;;;;;;;;;;;;;8.21;91.78;100109.03;5097419;28;20039;-71
2021/05/14 04:39:00;;;;;;;;;;;;;;;8.18;91.67;100109.38;5097298;28;19912;-71
2021/05/14 04:41:25;;;;;;;40.77;17.03;;;;;;;8.17;91.64;100108.56;5079472;28;19911;-71
2021/05/14 04:43:51;;;;;;;44.50;16.60;;;;;;;8.20;91.79;100113.53;5114595;28;20095;-71
2021/05/14 04:46:16;;;;;;;36.07;18.43;;;;;;;8.27;92.21;100103.09;5096716;28;20074;-71
2021/05/14 04:48:41;;;;;;;34.07;17.20;;;;;;;8.35;92.20;100112.91;5114261;28;20035;-71
2021/05/14 04:51:08;;;;;;;37.80;17.23;;;;;;;8.27;91.80;100111.06;5114576;28;20043;-72
2021/05/14 04:53:35;;;;;;;41.45;16.08;;;;;;;8.29;92.24;100114.41;5114514;28;20113;-71
2021/05/14 04:56:01;;;;;;;35.78;17.20;;;;;;;8.35;91.81;100110.25;5114450;28;20077;-71
2021/05/14 04:58:26;;;;;;;44.13;18.50;;;;;;;8.33;91.69;100113.06;5096239;28;20066;-72
2021/05/14 05:00:51;;;;;;;39.57;16.53;;;;;;;8.33;91.16;100105.06;5114467;28;20417;-72
2021/05/14 05:03:17;;;;;;;36.50;16.53;;;;;;;8.35;91.27;100108.41;5114249;28;20475;-72
2021/05/14 05:05:42;;;;;;;30.17;16.47;;;;;;;8.36;91.26;100102.09;5096553;28;20035;-71
2021/05/14 05:08:08;;;;;;;34.63;15.10;;;;;;;8.32;91.02;100100.75;5114014;28;20035;-71
2021/05/14 05:10:33;;;;;;;42.47;16.73;;;;;;;8.34;90.65;100109.41;5113283;28;20042;-71
2021/05/14 05:12:58;;;;;;;33.43;15.63;;;;;;;8.36;91.04;100103.94;5114089;28;20035;-71
2021/05/14 05:15:24;;;;;;;36.17;13.83;;;;;;;8.33;90.75;100096.28;5096256;28;20100;-71
2021/05/14 05:17:49;;;;;;;40.43;16.47;;;;;;;8.35;90.33;100108.41;5095873;28;20038;-71
2021/05/14 05:20:15;;;;;;;16.97;9.80;;;;;;;8.39;90.31;100106.25;5096176;28;20036;-71
2021/05/14 05:22:40;;;;;;;34.87;14.63;;;;;;;8.44;90.24;100112.78;5096074;28;20038;-71
2021/05/14 05:25:06;;;;;;;33.77;16.43;;;;;;;8.54;90.73;100111.78;5096017;28;20303;-72
2021/05/14 05:27:32;;;;;;;33.50;13.90;;;;;;;8.58;90.07;100121.13;5113507;28;20466;-72
2021/05/14 05:29:57;;;;;;;35.43;14.60;;;;;;;8.45;89.26;100114.47;5113809;28;20834;-71
2021/05/14 05:32:22;;;;;;;35.97;13.80;;;;;;;8.51;89.78;100120.13;5095763;28;20027;-72
2021/05/14 05:34:48;;;;;;;38.93;14.90;;;;;;;8.55;90.21;100116.97;5078850;28;20614;-72
2021/05/14 05:37:13;;;;;;;33.80;13.70;;;;;;;8.49;89.17;100122.09;5113491;28;20027;-72
2021/05/14 05:39:39;;;;;;;34.33;14.13;;;;;;;8.58;89.50;100124.59;5113429;28;20448;-72
2021/05/14 05:42:04;;;;;;;40.30;15.00;;;;;;;8.59;89.61;100128.09;5113430;28;20051;-72
2021/05/14 05:44:30;;;;;;;29.98;10.68;;;;;;;8.87;91.18;100123.28;5113536;28;20047;-73
2021/05/14 05:46:55;;;;;;;38.30;15.23;;;;;;;8.89;88.27;100121.28;5095493;28;20046;-73
2021/05/14 05:49:23;;;;;;;24.63;11.60;;;;;;;9.12;89.42;100118.78;5095381;28;20047;-73
2021/05/14 05:51:49;;;;;;;29.33;13.63;;;;;;;9.18;87.76;100128.78;5095494;28;20126;-75
2021/05/14 05:54:15;;;;;;;25.67;12.50;;;;;;;9.04;86.20;100118.81;5095469;28;20452;-73
2021/05/14 05:56:43;;;;;;;31.48;13.25;;;;;;;9.00;87.09;100131.59;5095244;28;20046;-73
2021/05/14 05:59:12;;;;;;;34.45;13.38;;;;;;;8.94;87.41;100131.44;5094911;28;20528;-73
2021/05/14 06:01:37;;;;;;;37.05;14.40;;;;;;;8.80;87.94;100130.28;5095175;28;20043;-73
2021/05/14 06:04:03;;;;;;;41.85;15.73;;;;;;;8.73;88.90;100134.59;5095158;28;20039;-73
2021/05/14 06:06:28;;;;;;;38.53;14.60;;;;;;;8.75;88.71;100138.75;5113126;28;20414;-73
2021/05/14 06:08:54;;;;;;;30.07;14.93;;;;;;;8.76;89.16;100137.78;5112631;28;20783;-73
2021/05/14 06:11:19;;;;;;;49.93;16.37;;;;;;;8.82;89.44;100139.75;5112594;28;20036;-73
2021/05/14 06:13:45;;;;;;;39.47;14.80;;;;;;;8.83;89.04;100146.75;5112761;28;20028;-73
2021/05/14 06:16:10;;;;;;;39.67;16.33;;;;;;;8.86;89.02;100140.25;5112892;28;20112;-72
2021/05/14 06:18:38;;;;;;;34.80;13.97;;;;;;;8.98;89.53;100132.78;5077705;28;20036;-74
2021/05/14 06:21:06;;;;;;;42.05;15.35;;;;;;;8.95;89.01;100143.78;5112905;28;20449;-74
2021/05/14 06:23:32;;;;;;;31.05;14.90;;;;;;;8.96;88.80;100135.59;5112276;28;20046;-73
2021/05/14 06:25:57;;;;;;;34.17;16.20;;;;;;;9.12;89.25;100145.41;5112866;28;20035;-73
2021/05/14 06:28:23;;;;;;;33.87;15.17;;;;;;;9.09;88.36;100140.44;5112282;28;20039;-73
2021/05/14 06:30:49;;;;;;;33.57;14.63;;;;;;;9.14;88.68;100145.25;5111936;28;20050;-73
2021/05/14 06:33:15;;;;;;;;;;;;;;;9.17;88.93;100151.06;5094786;28;20081;-73
2021/05/14 06:35:41;;;;;;;47.95;16.52;;;;;;;9.02;88.27;100144.75;5094513;28;19916;-73
2021/05/14 06:38:07;;;;;;;35.45;15.30;;;;;;;9.01;88.72;100149.25;5112131;28;20564;-73
2021/05/14 06:40:33;;;;;;;42.15;18.20;;;;;;;9.07;89.20;100153.91;5112332;28;20039;-73
2021/05/14 06:42:58;;;;;;;49.13;16.52;;;;;;;9.07;89.50;100164.56;5112379;28;20069;-73
2021/05/14 06:45:23;;;;;;;39.43;15.63;;;;;;;8.97;89.42;100157.75;5112177;28;20081;-73
2021/05/14 06:47:49;;;;;;;36.87;16.10;;;;;;;9.02;89.42;100164.22;5112085;28;20377;-73
2021/05/14 06:50:14;;;;;;;43.40;15.77;;;;;;;8.99;89.21;100151.25;5112163;28;20096;-73
2021/05/14 06:52:39;;;;;;;41.57;17.37;;;;;;;9.03;89.55;100157.06;5110888;28;20032;-73
2021/05/14 06:55:08;;;;;;;43.93;16.67;;;;;;;9.07;89.44;100153.91;5093699;28;20118;-73
2021/05/14 06:57:34;;;;;;;47.65;16.95;;;;;;;8.95;88.81;100157.09;5093679;28;20494;-73
2021/05/14 06:59:59;;;;;;;48.42;16.65;;;;;;;8.95;88.79;100165.06;5111855;28;20050;-73
2021/05/14 07:02:25;;;;;;;48.77;17.57;;;;;;;9.03;89.33;100160.56;5092987;28;20050;-73
2021/05/14 07:04:51;;;;;;;46.70;16.48;;;;;;;8.99;89.26;100161.91;5093624;28;20116;-73
2021/05/14 07:07:17;;;;;;;35.73;15.33;;;;;;;9.09;89.26;100161.72;5111534;28;20093;-73
2021/05/14 07:09:43;;;;;;;48.78;18.23;;;;;;;9.08;89.33;100162.72;5093593;28;20568;-73
2021/05/14 07:12:09;;;;;;;53.25;16.75;;;;;;;9.10;88.99;100160.72;5111660;28;20054;-73
2021/05/14 07:14:34;;;;;;;48.10;15.33;;;;;;;9.05;88.96;100166.53;5110883;28;20113;-73
2021/05/14 07:17:00;;;;;;;38.13;16.07;;;;;;;9.03;88.91;100152.56;5076891;28;20130;-73
2021/05/14 07:19:27;;;;;;;44.35;16.50;;;;;;;9.08;88.88;100152.06;5092510;28;20102;-73
2021/05/14 07:21:52;;;;;;;;;;;;;;;9.06;88.98;100162.03;5093555;28;20054;-73
2021/05/14 07:24:17;;;;;;;;;;;;;;;9.15;89.10;100170.88;5111039;28;19919;-73
2021/05/14 07:26:43;;;;;;;51.20;16.10;;;;;;;9.13;88.89;100167.53;5110768;28;19943;-73
2021/05/14 07:29:08;;;;;;;50.37;14.83;;;;;;;9.07;88.25;100167.22;5093069;28;20043;-73
2021/05/14 07:31:33;;;;;;;36.10;14.53;;;;;;;9.00;88.47;100160.91;5093256;28;20032;-73
2021/05/14 07:33:59;;;;;;;29.53;13.80;;;;;;;9.03;88.83;100167.72;5110056;28;20051;-66
2021/05/14 07:36:25;;;;;;;43.73;15.50;;;;;;;9.07;88.90;100164.56;5111038;28;20040;-66
2021/05/14 07:38:50;;;;;;;37.50;15.45;;;;;;;9.08;88.68;100165.38;5093038;28;20037;-66
2021/05/14 07:41:16;;;;;;;42.63;13.85;;;;;;;9.20;89.10;100176.53;5111290;28;20437;-66
2021/05/14 07:43:42;;;;;;;44.45;15.82;;;;;;;9.19;88.31;100173.03;5111248;28;20063;-66
2021/05/14 07:46:07;;;;;;;37.63;15.20;;;;;;;9.20;88.34;100174.72;5111383;28;20047;-72
2021/05/14 07:48:33;;;;;;;31.83;14.25;;;;;;;9.27;88.65;100175.72;5093217;28;20036;-73
2021/05/14 07:50:58;;;;;;;42.53;14.83;;;;;;;9.25;88.36;100177.72;5109025;28;20412;-72
2021/05/14 07:53:23;;;;;;;37.43;14.37;;;;;;;9.18;88.38;100181.22;5107896;28;20127;-72
2021/05/14 07:55:49;;;;;;;43.33;14.90;;;;;;;9.24;88.98;100184.00;5073649;28;20096;-73
2021/05/14 07:58:14;;;;;;;43.73;15.63;;;;;;;9.27;89.87;100181.03;5089924;28;20032;-72
2021/05/14 08:00:40;;;;;;;39.73;14.30;;;;;;;9.25;87.96;100169.72;5100825;28;20122;-73
2021/05/14 08:03:06;;;;;;;36.38;13.30;;;;;;;9.37;88.28;100169.38;5075926;28;20032;-73
2021/05/14 08:05:31;;;;;;;41.60;13.97;;;;;;;9.42;88.31;100172.34;5087842;28;20346;-72
2021/05/14 08:08:08;;;;;;;33.27;12.40;;;;;;;9.33;88.29;100168.88;5088851;28;20031;-72
2021/05/14 08:10:33;;;;;;;36.20;13.85;;;;;;;9.22;87.94;100167.38;5089292;28;20101;-72
2021/05/14 08:12:59;;;;;;;35.80;13.67;;;;;;;9.30;88.66;100170.03;5089048;28;20044;-73
2021/05/14 08:15:24;;;;;;;34.83;13.83;;;;;;;9.33;88.87;100160.88;5089170;28;20059;-73
2021/05/14 08:17:53;;;;;;;38.83;15.00;;;;;;;9.35;88.55;100172.19;5088869;28;20024;-66
2021/05/14 08:20:19;;;;;;;40.78;14.18;;;;;;;9.27;89.11;100172.19;5089905;28;20051;-66
2021/05/14 08:22:44;;;;;;;;;;;;;;;9.27;89.39;100175.72;5091077;28;20384;-66
2021/05/14 08:25:10;;;;;;;;;;;;;;;9.18;89.52;100171.38;5091293;28;19998;-66
2021/05/14 08:27:36;;;;;;;40.27;14.20;;;;;;;9.11;88.47;100181.03;5072487;28;19911;-66
2021/05/14 08:30:02;;;;;;;43.60;15.50;;;;;;;9.13;89.22;100183.53;5090774;28;20039;-66
2021/05/14 08:32:27;;;;;;;;;;;;;;;9.12;89.38;100188.03;5091081;28;20060;-66
2021/05/14 08:34:53;;;;;;;;;;;;;;;9.16;89.78;100192.03;5073231;28;20028;-66
2021/05/14 08:37:18;;;;;;;41.17;16.07;;;;;;;9.18;90.05;100187.38;5072901;28;19965;-66
2021/05/14 08:39:43;;;;;;;30.10;14.00;;;;;;;9.15;90.09;100193.00;5072611;28;20036;-66
2021/05/14 08:42:09;;;;;;;51.23;16.07;;;;;;;9.17;90.09;100192.84;5072904;28;20051;-66
2021/05/14 08:44:34;;;;;;;37.40;14.37;;;;;;;9.18;90.49;100192.69;5090476;28;20036;-66
2021/05/14 08:46:59;;;;;;;51.17;15.63;;;;;;;9.26;90.55;100190.00;5093336;28;20032;-66
2021/05/14 08:49:25;;;;;;;46.80;15.80;;;;;;;9.27;90.25;100196.16;5075618;28;20066;-65
2021/05/14 08:51:52;;;;;;;49.05;14.90;;;;;;;9.27;90.53;100186.38;5059561;28;20028;-65
2021/05/14 08:54:18;;;;;;;40.50;14.85;;;;;;;9.02;89.38;100193.53;5076059;28;20437;-65
2021/05/14 08:56:43;;;;;;;38.37;13.47;;;;;;;9.15;90.61;100193.00;5093986;28;20100;-65
2021/05/14 08:59:09;;;;;;;50.43;16.70;;;;;;;9.20;90.40;100190.69;5093621;28;20042;-65
2021/05/14 09:01:38;;;;;;;42.93;15.63;;;;;;;9.32;89.98;100185.88;5093954;28;20036;-65
2021/05/14 09:04:09;;;;;;;40.35;15.02;;;;;;;9.36;89.85;100194.34;5075858;28;20461;-65
2021/05/14 09:06:37;;;;;;;35.35;13.88;;;;;;;9.30;89.15;100191.34;5093843;28;20055;-65
2021/05/14 09:09:08;;;;;;;33.88;13.85;;;;;;;9.45;89.51;100186.16;5075630;28;20032;-65
2021/05/14 09:11:48;;;;;;;35.03;14.35;;;;;;;9.48;88.50;100203.63;5093759;28;20483;-65
2021/05/14 09:14:30;;;;;;;45.17;14.75;;;;;;;9.38;88.55;100195.00;5093574;28;20126;-64
2021/05/14 09:16:55;;;;;;;34.92;14.27;;;;;;;9.35;88.76;100198.00;5075913;28;20046;-65
2021/05/14 09:19:32;;;;;;;44.77;15.93;;;;;;;9.47;89.27;100207.31;5075237;28;20119;-65
2021/05/14 09:22:12;;;;;;;;;;;;;;;9.52;89.79;100212.97;5073798;28;20044;-64
2021/05/14 09:24:39;;;;;;;33.60;14.95;;;;;;;9.58;89.28;100201.66;5055316;28;19912;-64
2021/05/14 09:27:15;;;;;;;43.97;15.32;;;;;;;9.49;87.90;100200.00;5072714;28;20384;-64
2021/05/14 09:29:40;;;;;;;39.83;14.57;;;;;;;9.48;87.92;100203.63;5071875;28;20036;-64
2021/05/14 09:32:24;;;;;;;42.00;14.90;;;;;;;9.60;88.38;100202.31;5038126;28;20029;-64
2021/05/14 09:34:52;;;;;;;35.58;13.77;;;;;;;9.63;88.21;100203.81;5054467;28;20297;-64
2021/05/14 09:37:19;;;;;;;46.80;13.85;;;;;;;9.71;87.81;100204.59;5054849;28;20033;-64
2021/05/14 09:39:45;;;;;;;36.25;13.80;;;;;;;9.75;88.06;100204.28;5064178;28;20040;-64
2021/05/14 09:42:10;;;;;;;42.58;13.75;;;;;;;9.81;87.89;100214.25;5055091;28;20029;-71
2021/05/14 09:44:36;;;;;;;32.97;14.00;;;;;;;9.83;88.33;100209.56;5055026;28;20082;-72
2021/05/14 09:47:02;;;;;;;25.98;12.15;;;;;;;9.73;86.27;100202.59;5072715;28;20279;-71
2021/05/14 09:49:28;;;;;;;45.03;14.00;;;;;;;9.78;86.66;100215.41;5054737;28;20472;-71
2021/05/14 09:51:58;;;;;;;34.83;12.82;;;;;;;9.83;87.60;100210.44;5072479;28;20040;-71
2021/05/14 09:54:36;;;;;;;32.72;13.65;;;;;;;9.96;87.78;100206.38;5072001;28;20041;-71
2021/05/14 09:57:32;;;;;;;35.65;11.90;;;;;;;9.91;86.95;100212.22;5070477;28;20392;-71
2021/05/14 10:00:00;;;;;;;37.60;12.20;;;;;;;9.97;87.56;100203.53;5071195;28;20036;-64
2021/05/14 10:02:29;;;;;;;40.22;12.95;;;;;;;10.06;87.78;100207.00;5072199;28;20043;-64
2021/05/14 10:04:55;;;;;;;34.10;13.70;;;;;;;9.91;87.40;100209.56;5072242;28;20233;-65
2021/05/14 10:07:23;;;;;;;38.20;12.95;;;;;;;9.86;87.19;100211.91;5072366;28;20028;-71
2021/05/14 10:09:52;;;;;;;23.40;11.32;;;;;;;9.76;86.98;100208.59;5054410;28;20105;-72
2021/05/14 10:12:21;;;;;;;29.15;13.48;;;;;;;9.72;86.73;100210.78;5037916;28;20039;-71
2021/05/14 10:14:47;;;;;;;29.80;12.15;;;;;;;9.74;87.71;100214.13;5054211;28;20438;-72
2021/05/14 10:17:13;;;;;;;29.10;11.75;;;;;;;9.82;86.90;100215.91;5072014;28;20040;-73
2021/05/14 10:19:40;;;;;;;24.75;10.43;;;;;;;9.89;86.65;100220.38;5071615;28;20139;-72
2021/05/14 10:22:07;;;;;;;37.03;14.38;;;;;;;9.95;87.14;100218.91;5072076;28;20044;-65
2021/05/14 10:24:43;;;;;;;29.30;12.35;;;;;;;9.95;86.76;100221.56;5071940;28;20032;-65
2021/05/14 10:27:13;;;;;;;34.38;12.25;;;;;;;9.79;86.95;100224.28;5054449;28;20060;-65
2021/05/14 10:29:42;;;;;;;32.28;12.40;;;;;;;9.83;87.08;100221.09;5071262;28;20374;-65
2021/05/14 10:32:07;;;;;;;29.58;12.32;;;;;;;9.91;87.72;100228.22;5071134;28;20107;-65
2021/05/14 10:34:33;;;;;;;25.57;11.10;;;;;;;9.76;86.94;100219.25;5053791;28;20536;-65
2021/05/14 10:36:58;;;;;;;32.65;12.02;;;;;;;9.80;87.44;100224.06;5053876;28;20559;-65
2021/05/14 10:39:32;;;;;;;29.93;11.50;;;;;;;9.82;87.54;100215.91;5053647;28;20043;-65
2021/05/14 10:42:06;;;;;;;33.45;11.70;;;;;;;9.84;87.46;100220.06;5071409;28;20063;-65
2021/05/14 10:44:44;;;;;;;32.15;12.55;;;;;;;9.92;87.26;100221.88;5071193;28;20032;-65
2021/05/14 10:47:22;;;;;;;29.20;11.73;;;;;;;9.83;87.38;100220.22;5069837;28;20090;-65
2021/05/14 10:49:51;;;;;;;27.15;11.95;;;;;;;9.69;87.13;100217.28;5070967;28;20036;-65
2021/05/14 10:52:17;;;;;;;26.98;10.85;;;;;;;9.59;87.44;100221.13;5083641;28;20031;-65
2021/05/14 10:54:43;;;;;;;25.03;12.90;;;;;;;9.67;87.61;100221.94;5092578;28;20377;-65
2021/05/14 10:57:11;;;;;;;22.95;10.40;;;;;;;9.54;87.33;100229.63;5093132;28;20293;-65
2021/05/14 10:59:39;;;;;;;25.20;11.18;;;;;;;9.54;87.04;100226.97;5056641;28;20044;-65
2021/05/14 11:02:24;;;;;;;23.85;10.40;;;;;;;9.47;87.62;100217.97;5070263;28;20331;-65
2021/05/14 11:04:50;;;;;;;26.77;11.93;;;;;;;9.42;87.93;100230.97;5059715;28;20131;-65
2021/05/14 11:07:39;;;;;;;28.63;11.33;;;;;;;9.46;88.56;100234.97;5071173;28;20230;-65
2021/05/14 11:10:13;;;;;;;27.65;11.90;;;;;;;9.60;88.79;100231.63;5070476;28;20033;-65
2021/05/14 11:12:43;;;;;;;26.00;13.13;;;;;;;9.41;88.27;100226.63;5070971;28;20033;-65
2021/05/14 11:15:20;;;;;;;27.27;12.38;;;;;;;9.49;88.34;100227.47;5070735;28;20086;-65
2021/05/14 11:18:13;;;;;;;30.33;13.38;;;;;;;9.62;88.63;100232.28;5070709;28;20029;-65